KMXF/MXF METAR and TAF weather

Enter ICAO airport designator
Station Type Date Time Source
KMXF METAR 2021/09/28 15:56 UTC NOAA

KMXF 281556Z AUTO 00000KT 10SM CLR 26/20 A3004 RMK AO2 SLP174 T02620196


Station Type Date Time Source
KMXF Decoded METAR 2021/09/28 15:56 UTC NOAA

Maxwell Air Force Base / Montgomery, AL, United States (KMXF) 32-23N 086-22W
Sep 28, 2021 - 11:56 AM EDT / 2021.09.28 1556 UTC
Wind: Calm:0
Visibility: 10 mile(s):0
Sky conditions: clear
Temperature: 79.2 F (26.2 C)
Dew Point: 67.3 F (19.6 C)
Relative Humidity: 67%
Pressure (altimeter): 30.04 in. Hg (1017 hPa)
ob: KMXF 281556Z AUTO 00000KT 10SM CLR 26/20 A3004 RMK AO2 SLP174 T02620196
cycle: 16

Station Type Date Time Source
KMXF TAF 2021/09/28 15:30 UTC NOAA

TAF
AMD KMXF 281530Z 2815/2917 VRB06KT 9999 SKC QNH3002INS
BECMG 2908/2909 VRB06KT 8000 BR FEW030 QNH3002INS
BECMG 2914/2915 VRB06KT 9999 NSW SCT040 QNH3002INS TX29/2821Z TN16/2911Z

Example: see airport list